createdAt,value
2018-12-11T00:01:56.334Z,4.50
2018-12-11T00:04:24.412Z,4.50
2018-12-11T00:06:52.552Z,4.50
2018-12-11T00:09:20.696Z,4.40
2018-12-11T00:11:48.825Z,4.50
2018-12-11T00:14:16.935Z,4.60
2018-12-11T00:16:45.100Z,4.50
2018-12-11T00:19:13.203Z,4.60
2018-12-11T00:21:41.307Z,4.50
2018-12-11T00:24:09.445Z,4.50
2018-12-11T00:26:37.855Z,4.50
2018-12-11T00:29:06.018Z,4.50
2018-12-11T00:31:34.125Z,4.60
2018-12-11T00:34:02.328Z,4.60
2018-12-11T00:36:30.440Z,4.60
2018-12-11T00:38:58.626Z,4.60
2018-12-11T00:41:26.784Z,4.50
2018-12-11T00:43:54.915Z,4.50
2018-12-11T00:46:23.315Z,4.60
2018-12-11T00:48:51.795Z,4.60
2018-12-11T00:51:19.916Z,4.60
2018-12-11T00:53:48.068Z,4.60
2018-12-11T00:56:16.172Z,4.60
2018-12-11T00:58:44.287Z,4.60
2018-12-11T01:01:12.428Z,4.70
2018-12-11T01:03:40.536Z,4.60
2018-12-11T01:06:08.935Z,4.60
2018-12-11T01:08:37.465Z,4.60
2018-12-11T01:11:05.616Z,4.60
2018-12-11T01:13:33.795Z,4.60
2018-12-11T01:16:01.964Z,4.60
2018-12-11T01:18:30.123Z,4.60
2018-12-11T01:20:58.256Z,4.60
2018-12-11T01:23:26.361Z,4.60
2018-12-11T01:25:54.481Z,4.70
2018-12-11T01:28:22.712Z,4.70
2018-12-11T01:30:50.879Z,4.60
2018-12-11T01:33:18.984Z,4.60
2018-12-11T01:35:47.256Z,4.70
2018-12-11T01:38:15.364Z,4.70
2018-12-11T01:40:43.565Z,4.70
2018-12-11T01:43:11.732Z,4.80
2018-12-11T01:45:39.832Z,4.70
2018-12-11T01:48:07.940Z,4.70
2018-12-11T01:50:36.095Z,4.70
2018-12-11T01:53:04.203Z,4.70
2018-12-11T01:55:32.306Z,4.80
2018-12-11T01:58:00.488Z,4.80
2018-12-11T02:00:28.591Z,4.80
2018-12-11T02:02:56.707Z,4.80
2018-12-11T02:05:25.097Z,4.80
2018-12-11T02:07:53.192Z,4.80
2018-12-11T02:10:21.306Z,4.70
2018-12-11T02:12:49.478Z,4.70
2018-12-11T02:15:17.584Z,4.60
2018-12-11T02:17:45.700Z,4.50
2018-12-11T02:20:13.855Z,4.40
2018-12-11T02:22:41.951Z,4.50
2018-12-11T02:25:10.107Z,4.50
2018-12-11T02:27:38.243Z,4.50
2018-12-11T02:30:06.390Z,4.40
2018-12-11T02:32:34.564Z,4.50
2018-12-11T02:35:02.736Z,4.50
2018-12-11T02:37:30.949Z,4.40
2018-12-11T02:39:59.050Z,4.50
2018-12-11T02:42:27.204Z,4.50
2018-12-11T02:44:55.296Z,4.60
2018-12-11T02:47:23.460Z,4.60
2018-12-11T02:49:51.665Z,4.60
2018-12-11T02:52:19.783Z,4.60
2018-12-11T02:54:47.877Z,4.60
2018-12-11T02:57:16.041Z,4.50
2018-12-11T02:59:44.255Z,4.50
2018-12-11T03:02:12.376Z,4.60
2018-12-11T03:04:40.535Z,4.60
2018-12-11T03:07:08.647Z,4.60
2018-12-11T03:09:36.757Z,4.60
2018-12-11T03:12:04.926Z,4.60
2018-12-11T03:14:33.069Z,4.60
2018-12-11T03:17:01.200Z,4.60
2018-12-11T03:19:29.376Z,4.60
2018-12-11T03:21:57.515Z,4.50
2018-12-11T03:24:25.621Z,4.50
2018-12-11T03:26:53.868Z,4.50
2018-12-11T03:29:22.030Z,4.50
2018-12-11T03:31:50.176Z,4.40
2018-12-11T03:34:18.359Z,4.40
2018-12-11T03:36:46.527Z,4.40
2018-12-11T03:39:14.639Z,4.40
2018-12-11T03:41:42.851Z,4.30
2018-12-11T03:44:11.199Z,4.30
2018-12-11T03:46:39.308Z,4.30
2018-12-11T03:49:07.424Z,4.30
2018-12-11T03:51:35.825Z,4.30
2018-12-11T03:54:03.945Z,4.30
2018-12-11T03:56:32.088Z,4.30
2018-12-11T03:59:00.261Z,4.20
2018-12-11T04:01:28.384Z,4.20
2018-12-11T04:03:56.618Z,4.20
2018-12-11T04:06:24.765Z,4.20
2018-12-11T04:08:52.854Z,4.10
2018-12-11T04:11:21.064Z,4.10
2018-12-11T04:13:49.511Z,4.10
2018-12-11T04:16:17.712Z,4.10
2018-12-11T04:18:45.803Z,4.00
2018-12-11T04:21:13.989Z,4.00
2018-12-11T04:23:42.129Z,4.00
2018-12-11T04:26:10.245Z,4.00
2018-12-11T04:28:38.396Z,4.00
2018-12-11T04:31:06.520Z,3.90
2018-12-11T04:33:34.628Z,3.90
2018-12-11T04:36:03.423Z,3.90
2018-12-11T04:38:31.520Z,4.00
2018-12-11T04:40:59.632Z,4.00
2018-12-11T04:43:27.780Z,3.90
2018-12-11T04:45:55.875Z,3.90
2018-12-11T04:48:23.983Z,3.90
2018-12-11T04:50:52.132Z,3.80
2018-12-11T04:53:20.292Z,3.80
2018-12-11T04:55:48.441Z,3.80
2018-12-11T04:58:16.575Z,3.90
2018-12-11T05:00:44.707Z,3.80
2018-12-11T05:03:13.123Z,3.80
2018-12-11T05:05:41.234Z,3.80
2018-12-11T05:08:15.412Z,3.80
2018-12-11T05:10:44.304Z,3.80
2018-12-11T05:13:12.494Z,3.80
2018-12-11T05:15:40.703Z,3.80
2018-12-11T05:18:08.828Z,3.80
2018-12-11T05:20:36.979Z,3.80
2018-12-11T05:23:05.071Z,3.90
2018-12-11T05:25:33.172Z,3.90
2018-12-11T05:28:01.348Z,3.90
2018-12-11T05:30:29.456Z,3.90
2018-12-11T05:35:41.764Z,3.90
2018-12-11T05:38:09.814Z,3.90
2018-12-11T05:40:37.919Z,3.90
2018-12-11T05:43:06.283Z,3.80
2018-12-11T05:45:34.383Z,3.90
2018-12-11T05:48:02.479Z,3.80
2018-12-11T05:50:30.595Z,3.80
2018-12-11T05:52:58.788Z,3.80
2018-12-11T05:55:26.950Z,3.80
2018-12-11T05:57:55.051Z,3.80
2018-12-11T06:00:23.151Z,3.80
2018-12-11T06:02:51.533Z,3.80
2018-12-11T06:05:19.759Z,3.70
2018-12-11T06:07:47.848Z,3.70
2018-12-11T06:10:16.003Z,3.60
2018-12-11T06:12:44.143Z,3.60
2018-12-11T06:15:12.249Z,3.70
2018-12-11T06:17:40.359Z,3.60
2018-12-11T06:20:08.512Z,3.60
2018-12-11T06:22:36.616Z,3.60
2018-12-11T06:25:04.910Z,3.70
2018-12-11T06:27:33.415Z,3.60
2018-12-11T06:30:01.504Z,3.70
2018-12-11T06:32:29.605Z,3.60
2018-12-11T06:34:57.785Z,3.60
2018-12-11T06:37:25.916Z,3.60
2018-12-11T06:39:54.028Z,3.60
2018-12-11T06:42:22.164Z,3.70
2018-12-11T06:44:50.264Z,3.70
2018-12-11T06:47:18.381Z,3.70
2018-12-11T06:49:46.836Z,3.70
2018-12-11T06:52:14.953Z,3.70
2018-12-11T06:54:43.061Z,3.80
2018-12-11T06:57:11.199Z,3.70
2018-12-11T06:59:39.319Z,3.80
2018-12-11T07:02:07.440Z,3.70
2018-12-11T07:04:35.615Z,3.80
2018-12-11T07:07:03.712Z,3.80
2018-12-11T07:09:31.828Z,3.80
2018-12-11T07:11:59.964Z,3.80
2018-12-11T07:14:28.060Z,3.90
2018-12-11T07:16:56.215Z,3.90
2018-12-11T07:19:24.329Z,3.90
2018-12-11T07:21:52.400Z,3.80
2018-12-11T07:24:20.553Z,3.80
2018-12-11T07:26:48.663Z,3.90
2018-12-11T07:29:16.766Z,3.80
2018-12-11T07:31:45.032Z,3.80
2018-12-11T07:34:13.205Z,3.90
2018-12-11T07:36:41.300Z,3.90
2018-12-11T07:39:09.448Z,3.80
2018-12-11T07:41:37.563Z,3.80
2018-12-11T07:44:05.661Z,3.90
2018-12-11T07:46:33.792Z,3.90
2018-12-11T07:49:01.895Z,3.90
2018-12-11T07:51:30.005Z,3.90
2018-12-11T07:53:58.161Z,3.90
2018-12-11T07:56:26.259Z,3.90
2018-12-11T07:58:54.361Z,3.80
2018-12-11T08:01:22.652Z,3.80
2018-12-11T08:03:50.763Z,3.80
2018-12-11T08:06:18.860Z,3.70
2018-12-11T08:08:47.004Z,3.80
2018-12-11T08:11:15.099Z,3.90
2018-12-11T08:13:43.243Z,3.90
2018-12-11T08:16:11.395Z,3.80
2018-12-11T08:18:39.513Z,3.80
2018-12-11T08:21:07.659Z,3.80
2018-12-11T08:23:35.756Z,3.80
2018-12-11T08:26:03.927Z,3.80
2018-12-11T08:28:32.092Z,3.70
2018-12-11T08:31:00.188Z,3.70
2018-12-11T08:33:28.307Z,3.70
2018-12-11T08:35:56.448Z,3.80
2018-12-11T08:38:24.592Z,3.70
2018-12-11T08:40:52.698Z,3.70
2018-12-11T08:43:20.804Z,3.80
2018-12-11T08:45:48.956Z,3.80
2018-12-11T08:48:17.084Z,3.70
2018-12-11T08:50:45.192Z,3.80
2018-12-11T08:53:13.276Z,3.80
2018-12-11T08:55:41.468Z,3.80
2018-12-11T08:58:09.592Z,3.80
2018-12-11T09:00:37.680Z,3.80
2018-12-11T09:03:05.938Z,3.70
2018-12-11T09:05:34.036Z,3.80
2018-12-11T09:08:02.216Z,3.80
2018-12-11T09:10:30.381Z,3.80
2018-12-11T09:12:58.504Z,3.90
2018-12-11T09:15:26.620Z,4.00
2018-12-11T09:17:54.772Z,3.90
2018-12-11T09:20:22.870Z,4.00
2018-12-11T09:22:50.978Z,4.00
2018-12-11T09:25:19.144Z,4.20
2018-12-11T09:27:47.364Z,4.30
2018-12-11T09:30:15.476Z,4.10
2018-12-11T09:32:43.844Z,3.90
2018-12-11T09:35:11.995Z,3.90
2018-12-11T09:37:40.096Z,3.90
2018-12-11T09:40:08.261Z,4.00
2018-12-11T09:42:36.364Z,3.90
2018-12-11T09:45:06.356Z,3.90
2018-12-11T09:47:34.489Z,3.70
2018-12-11T09:50:02.654Z,3.60
2018-12-11T09:52:30.795Z,3.70
2018-12-11T09:54:58.904Z,3.80
2018-12-11T09:57:27.019Z,3.90
2018-12-11T09:59:55.153Z,4.10
2018-12-11T10:02:23.350Z,4.10
2018-12-11T10:04:51.580Z,4.10
2018-12-11T10:07:19.702Z,3.90
2018-12-11T10:09:47.865Z,3.90
2018-12-11T10:12:16.020Z,4.00
2018-12-11T10:14:44.239Z,4.00
2018-12-11T10:17:12.317Z,4.10
2018-12-11T10:19:40.675Z,4.20
2018-12-11T10:22:08.768Z,4.20
2018-12-11T10:24:36.923Z,4.00
2018-12-11T10:27:05.024Z,4.10
2018-12-11T10:29:33.136Z,4.00
2018-12-11T10:32:01.303Z,4.10
2018-12-11T10:34:29.416Z,4.10
2018-12-11T10:36:57.548Z,4.30
2018-12-11T10:39:25.828Z,4.30
2018-12-11T10:41:53.916Z,4.40
2018-12-11T10:44:22.076Z,4.50
2018-12-11T10:46:50.237Z,4.70
2018-12-11T10:49:18.358Z,4.90
2018-12-11T10:51:46.461Z,4.90
2018-12-11T10:54:14.860Z,4.80
2018-12-11T10:56:42.959Z,4.80
2018-12-11T10:59:11.056Z,4.90
2018-12-11T11:01:43.495Z,4.80
2018-12-11T11:04:11.781Z,4.60
2018-12-11T11:06:39.892Z,4.50
2018-12-11T11:09:08.352Z,4.50
2018-12-11T11:11:36.460Z,4.50
2018-12-11T11:14:04.580Z,4.50
2018-12-11T11:16:32.958Z,4.60
2018-12-11T11:19:01.079Z,4.60
2018-12-11T11:21:29.995Z,4.60
2018-12-11T11:23:58.099Z,4.70
2018-12-11T11:26:26.203Z,4.70
2018-12-11T11:28:54.327Z,4.50
2018-12-11T11:33:44.679Z,4.50
2018-12-11T11:36:12.781Z,4.70
2018-12-11T11:41:18.609Z,4.70
2018-12-11T11:43:46.688Z,4.80
2018-12-11T11:46:14.785Z,4.80
2018-12-11T11:48:42.932Z,4.80
2018-12-11T11:51:11.020Z,4.70
2018-12-11T11:53:39.132Z,4.60
2018-12-11T11:56:07.272Z,4.50
2018-12-11T11:58:35.383Z,4.60
2018-12-11T12:01:03.593Z,4.60
2018-12-11T12:03:31.672Z,4.70
2018-12-11T12:05:59.775Z,4.70
2018-12-11T12:08:28.161Z,4.80
2018-12-11T12:10:56.259Z,4.80
2018-12-11T12:13:24.364Z,4.90
2018-12-11T12:15:52.511Z,5.10
2018-12-11T12:18:20.714Z,5.10
2018-12-11T12:20:48.803Z,5.10
2018-12-11T12:23:16.989Z,5.00
2018-12-11T12:25:45.088Z,5.00
2018-12-11T12:28:13.191Z,4.90
2018-12-11T12:30:41.380Z,4.90
2018-12-11T12:33:09.438Z,4.70
2018-12-11T12:35:37.543Z,4.60
2018-12-11T12:38:05.687Z,4.60
2018-12-11T12:40:33.767Z,4.60
2018-12-11T12:43:01.885Z,4.60
2018-12-11T12:45:29.988Z,4.50
2018-12-11T12:47:58.112Z,4.40
2018-12-11T12:50:26.232Z,4.30
2018-12-11T12:52:54.388Z,4.20
2018-12-11T12:55:22.533Z,4.10
2018-12-11T12:57:50.628Z,4.20
2018-12-11T13:00:18.740Z,4.10
2018-12-11T13:02:50.021Z,4.10
2018-12-11T13:05:18.165Z,4.00
2018-12-11T13:07:46.229Z,4.00
2018-12-11T13:10:14.384Z,4.00
2018-12-11T13:12:42.628Z,4.00
2018-12-11T13:15:10.720Z,4.10
2018-12-11T13:17:38.940Z,4.20
2018-12-11T13:20:07.084Z,4.20
2018-12-11T13:22:35.169Z,4.20
2018-12-11T13:25:03.464Z,4.20
2018-12-11T13:27:31.521Z,4.10
2018-12-11T13:29:59.608Z,4.10
2018-12-11T13:32:27.708Z,4.10
2018-12-11T13:34:55.801Z,4.00
2018-12-11T13:37:24.065Z,4.10
2018-12-11T13:39:52.168Z,4.20
2018-12-11T13:42:20.260Z,4.10
2018-12-11T13:44:49.608Z,4.10
2018-12-11T13:47:17.695Z,4.10
2018-12-11T13:49:45.792Z,4.00
2018-12-11T13:52:13.972Z,4.00
2018-12-11T13:54:42.096Z,4.00
2018-12-11T13:57:10.207Z,4.10
2018-12-11T13:59:38.410Z,4.20
2018-12-11T14:02:06.696Z,4.10
2018-12-11T14:04:34.805Z,4.20
2018-12-11T14:07:02.908Z,4.10
2018-12-11T14:09:36.521Z,4.10
2018-12-11T14:12:04.633Z,4.20
2018-12-11T14:14:32.732Z,4.30
2018-12-11T14:17:01.044Z,4.20
2018-12-11T14:19:29.156Z,4.20
2018-12-11T14:21:57.283Z,4.20
2018-12-11T14:24:25.452Z,4.20
2018-12-11T14:26:53.671Z,4.30
2018-12-11T14:29:21.767Z,4.30
2018-12-11T14:31:49.916Z,4.30
2018-12-11T14:34:18.227Z,4.30
2018-12-11T14:36:46.324Z,4.20
2018-12-11T14:39:14.419Z,4.20
2018-12-11T14:41:42.577Z,4.10
2018-12-11T14:44:10.696Z,4.10
2018-12-11T14:46:38.795Z,4.20
2018-12-11T14:49:06.952Z,4.20
2018-12-11T14:51:35.063Z,4.20
2018-12-11T14:54:03.212Z,4.20
2018-12-11T14:56:31.368Z,4.30
2018-12-11T14:58:59.471Z,4.30
2018-12-11T15:01:27.581Z,4.30
2018-12-11T15:03:55.823Z,4.30
2018-12-11T15:06:23.908Z,4.20
2018-12-11T15:08:52.022Z,4.20
2018-12-11T15:11:20.194Z,4.10
2018-12-11T15:13:48.298Z,4.00
2018-12-11T15:16:16.625Z,4.10
2018-12-11T15:18:44.835Z,4.20
2018-12-11T15:21:12.987Z,4.10
2018-12-11T15:23:41.037Z,4.10
2018-12-11T15:26:09.280Z,4.10
2018-12-11T15:28:37.392Z,4.10
2018-12-11T15:31:09.922Z,4.10
2018-12-11T15:33:38.033Z,3.90
2018-12-11T15:36:06.151Z,3.90
2018-12-11T15:38:34.426Z,4.00
2018-12-11T15:41:02.587Z,4.00
2018-12-11T15:43:30.917Z,4.00
2018-12-11T15:46:01.095Z,4.00
2018-12-11T15:48:29.207Z,4.10
2018-12-11T15:50:57.313Z,4.10
2018-12-11T15:53:25.580Z,4.10
2018-12-11T15:55:53.707Z,4.10
2018-12-11T15:58:24.954Z,4.00
2018-12-11T16:00:52.135Z,4.10
2018-12-11T16:03:20.247Z,4.00
2018-12-11T16:05:48.373Z,4.00
2018-12-11T16:08:16.568Z,4.00
2018-12-11T16:10:44.724Z,3.90
2018-12-11T16:13:12.891Z,3.90
2018-12-11T16:15:41.397Z,3.80
2018-12-11T16:18:09.528Z,3.90
2018-12-11T16:20:37.660Z,3.90
2018-12-11T16:23:05.816Z,3.90
2018-12-11T16:25:33.925Z,3.90
2018-12-11T16:28:02.046Z,3.90
2018-12-11T16:30:30.256Z,3.90
2018-12-11T16:32:58.552Z,4.00
2018-12-11T16:35:26.815Z,4.10
2018-12-11T16:37:54.953Z,4.10
2018-12-11T16:40:23.078Z,4.10
2018-12-11T16:42:51.231Z,4.00
2018-12-11T16:45:19.467Z,4.00
2018-12-11T16:47:47.581Z,4.10
2018-12-11T16:50:15.776Z,4.10
2018-12-11T16:52:43.888Z,4.00
2018-12-11T16:55:12.000Z,4.20
2018-12-11T16:57:40.286Z,4.20
2018-12-11T17:00:08.993Z,4.10
2018-12-11T17:02:37.307Z,4.20
2018-12-11T17:05:05.523Z,4.00
2018-12-11T17:07:33.805Z,4.10
2018-12-11T17:10:02.198Z,4.10
2018-12-11T17:12:30.576Z,4.10
2018-12-11T17:15:00.529Z,4.20
2018-12-11T17:17:28.766Z,4.10
2018-12-11T17:19:56.884Z,4.20
2018-12-11T17:22:25.019Z,4.10
2018-12-11T17:24:53.166Z,3.90
2018-12-11T17:27:21.363Z,4.00
2018-12-11T17:29:49.467Z,4.00
2018-12-11T17:32:17.636Z,4.10
2018-12-11T17:34:45.752Z,4.00
2018-12-11T17:37:13.864Z,3.90
2018-12-11T17:39:42.012Z,3.90
2018-12-11T17:42:10.177Z,3.90
2018-12-11T17:44:38.303Z,3.90
2018-12-11T17:47:06.448Z,3.90
2018-12-11T17:49:34.549Z,3.90
2018-12-11T17:52:02.719Z,3.90
2018-12-11T17:54:30.818Z,3.90
2018-12-11T17:56:58.948Z,3.90
2018-12-11T17:59:27.120Z,3.90
2018-12-11T18:01:58.562Z,3.90
2018-12-11T18:04:26.803Z,3.90
2018-12-11T18:06:54.930Z,3.90
2018-12-11T18:09:23.037Z,3.80
2018-12-11T18:11:51.193Z,3.80
2018-12-11T18:14:19.266Z,3.70
2018-12-11T18:16:47.450Z,3.70
2018-12-11T18:19:15.585Z,3.70
2018-12-11T18:21:43.710Z,3.80
2018-12-11T18:24:11.909Z,3.70
2018-12-11T18:26:40.029Z,3.80
2018-12-11T18:29:08.128Z,3.80
2018-12-11T18:31:36.281Z,3.80
2018-12-11T18:34:10.884Z,3.70
2018-12-11T18:36:34.743Z,3.60
2018-12-11T18:39:03.238Z,3.70
2018-12-11T18:41:31.532Z,3.70
2018-12-11T18:43:59.671Z,3.80
2018-12-11T18:46:27.792Z,3.70
2018-12-11T18:48:56.020Z,3.70
2018-12-11T18:51:24.132Z,3.70
2018-12-11T18:53:52.164Z,3.70
2018-12-11T18:56:20.343Z,3.70
2018-12-11T18:58:48.451Z,3.70
2018-12-11T19:01:16.802Z,3.70
2018-12-11T19:03:49.264Z,3.70
2018-12-11T19:06:15.119Z,3.70
2018-12-11T19:08:43.525Z,3.80
2018-12-11T19:11:11.637Z,3.80
2018-12-11T19:13:39.743Z,3.80
2018-12-11T19:16:07.900Z,3.70
2018-12-11T19:18:36.264Z,3.80
2018-12-11T19:21:04.439Z,3.70
2018-12-11T19:23:44.512Z,3.70
2018-12-11T19:26:12.853Z,3.60
2018-12-11T19:28:40.923Z,3.50
2018-12-11T19:31:09.099Z,3.50
2018-12-11T19:33:37.237Z,3.50
2018-12-11T19:36:05.375Z,3.40
2018-12-11T19:38:33.557Z,3.50
2018-12-11T19:41:01.647Z,3.40
2018-12-11T19:43:29.813Z,3.40
2018-12-11T19:45:57.984Z,3.40
2018-12-11T19:48:26.098Z,3.40
2018-12-11T19:50:54.244Z,3.50
2018-12-11T19:53:22.541Z,3.40
2018-12-11T19:55:50.645Z,3.50
2018-12-11T19:58:18.744Z,3.50
2018-12-11T20:03:21.328Z,3.50
2018-12-11T20:05:49.492Z,3.40
2018-12-11T20:08:17.632Z,3.50
2018-12-11T20:10:48.014Z,3.50
2018-12-11T20:13:16.168Z,3.50
2018-12-11T20:15:44.277Z,3.50
2018-12-11T20:18:13.017Z,3.60
2018-12-11T20:20:41.312Z,3.60
2018-12-11T20:23:09.355Z,3.60
2018-12-11T20:25:37.481Z,3.70
2018-12-11T20:28:05.635Z,3.70
2018-12-11T20:30:33.740Z,3.70
2018-12-11T20:33:01.845Z,3.80
2018-12-11T20:35:29.997Z,3.80
2018-12-11T20:37:58.132Z,3.70
2018-12-11T20:40:26.345Z,3.70
2018-12-11T20:42:54.496Z,3.70
2018-12-11T20:45:22.592Z,3.70
2018-12-11T20:47:50.686Z,3.70
2018-12-11T20:50:18.917Z,3.50
2018-12-11T20:52:47.012Z,3.60
2018-12-11T20:55:15.116Z,3.60
2018-12-11T20:57:43.743Z,3.50
2018-12-11T21:00:11.873Z,3.50
2018-12-11T21:02:40.027Z,3.50
2018-12-11T21:05:08.200Z,3.50
2018-12-11T21:07:36.290Z,3.60
2018-12-11T21:10:06.573Z,3.60
2018-12-11T21:12:34.741Z,3.60
2018-12-11T21:15:02.895Z,3.70
2018-12-11T21:17:31.003Z,3.70
2018-12-11T21:19:59.097Z,3.70
2018-12-11T21:22:27.248Z,3.70
2018-12-11T21:24:55.379Z,3.70
2018-12-11T21:27:23.488Z,3.70
2018-12-11T21:29:51.652Z,3.70
2018-12-11T21:32:19.769Z,3.70
2018-12-11T21:34:47.876Z,3.60
2018-12-11T21:37:16.056Z,3.60
2018-12-11T21:39:44.229Z,3.60
2018-12-11T21:42:12.416Z,3.70
2018-12-11T21:44:40.521Z,3.70
2018-12-11T21:47:08.638Z,3.70
2018-12-11T21:49:36.757Z,3.70
2018-12-11T21:52:04.868Z,3.70
2018-12-11T21:54:33.250Z,3.60
2018-12-11T21:57:01.447Z,3.60
2018-12-11T21:59:29.536Z,3.70
2018-12-11T22:01:57.676Z,3.70
2018-12-11T22:04:25.772Z,3.70
2018-12-11T22:06:53.919Z,3.60
2018-12-11T22:09:22.012Z,3.60
2018-12-11T22:11:50.111Z,3.60
2018-12-11T22:14:18.250Z,3.60
2018-12-11T22:16:46.945Z,3.50
2018-12-11T22:19:15.155Z,3.50
2018-12-11T22:21:43.286Z,3.50
2018-12-11T22:24:11.456Z,3.60
2018-12-11T22:29:11.471Z,3.70
2018-12-11T22:34:26.729Z,3.70
2018-12-11T22:36:54.830Z,3.70
2018-12-11T22:39:23.798Z,3.70
2018-12-11T22:41:52.072Z,3.60
2018-12-11T22:44:20.131Z,3.60
2018-12-11T22:46:48.211Z,3.60
2018-12-11T22:49:16.439Z,3.60
2018-12-11T22:51:44.699Z,3.50
2018-12-11T22:54:13.116Z,3.50
2018-12-11T22:56:41.276Z,3.50
2018-12-11T22:59:09.524Z,3.40
2018-12-11T23:01:37.616Z,3.40
2018-12-11T23:04:05.718Z,3.40
2018-12-11T23:06:34.104Z,3.40
2018-12-11T23:09:02.191Z,3.30
2018-12-11T23:11:30.289Z,3.30
2018-12-11T23:13:58.439Z,3.30
2018-12-11T23:16:26.501Z,3.40
2018-12-11T23:18:54.583Z,3.40
2018-12-11T23:21:22.723Z,3.40
2018-12-11T23:23:50.871Z,3.40
2018-12-11T23:26:18.964Z,3.40
2018-12-11T23:28:47.092Z,3.40
2018-12-11T23:31:15.267Z,3.40
2018-12-11T23:33:43.404Z,3.30
2018-12-11T23:36:11.539Z,3.30
2018-12-11T23:38:39.627Z,3.30
2018-12-11T23:41:07.772Z,3.40
2018-12-11T23:43:35.864Z,3.50
2018-12-11T23:46:04.003Z,3.40
2018-12-11T23:48:32.156Z,3.30
2018-12-11T23:51:00.266Z,3.30
2018-12-11T23:53:28.352Z,3.30
2018-12-11T23:55:56.501Z,3.30
2018-12-11T23:58:24.636Z,3.30
